Time;durP1;ratioP1;P1;durP2;ratioP2;P2;SDS_P1;SDS_P2;PMS_P1;PMS_P2;Temp;Humidity;BMP_temperature;BMP_pressure;BME280_temperature;BME280_humidity;BME280_pressure;Samples;Min_cycle;Max_cycle;Signal;HPM_P1;HPM_P2
2021/10/26 00:01:12;;;;;;;;;25.00;23.50;;;;;14.54;62.18;101614.28;5082913;27;45398;-55
2021/10/26 00:03:37;;;;;;;;;28.50;24.50;;;;;14.53;62.32;101615.16;5081535;27;45327;-55
2021/10/26 00:06:03;;;;;;;;;28.75;23.25;;;;;14.53;62.06;101620.47;5082100;27;45527;-55
2021/10/26 00:08:28;;;;;;;;;23.75;22.00;;;;;14.52;62.45;101612.56;5082793;27;45314;-55
2021/10/26 00:10:53;;;;;;;;;27.00;22.25;;;;;14.51;62.26;101613.44;5081458;28;45603;-56
2021/10/26 00:13:19;;;;;;;;;20.00;18.75;;;;;14.50;62.36;101622.28;5082740;27;45273;-55
2021/10/26 00:15:44;;;;;;;;;24.25;22.75;;;;;14.50;62.45;101627.56;5081732;27;45440;-54
2021/10/26 00:18:09;;;;;;;;;23.00;20.00;;;;;14.46;62.31;101614.41;5092046;27;45365;-53
2021/10/26 00:20:35;;;;;;;;;21.25;19.75;;;;;14.45;62.17;101620.59;5091956;27;45698;-55
2021/10/26 00:23:01;;;;;;;;;23.50;20.75;;;;;14.44;62.06;101616.19;5082683;27;45799;-55
2021/10/26 00:25:27;;;;;;;;;23.00;20.50;;;;;14.46;62.34;101613.50;5082589;27;45222;-54
2021/10/26 00:27:52;;;;;;;;;26.50;25.25;;;;;14.44;62.27;101620.63;5082139;27;46133;-54
2021/10/26 00:30:18;;;;;;;;;23.75;23.50;;;;;14.44;61.89;101625.91;5085761;27;45247;-54
2021/10/26 00:32:43;;;;;;;;;22.75;19.50;;;;;14.42;61.89;101620.63;5082519;27;45169;-55
2021/10/26 00:35:09;;;;;;;;;24.50;22.75;;;;;14.41;61.83;101623.28;5082329;27;45243;-55
2021/10/26 00:37:36;;;;;;;;;26.50;22.50;;;;;14.41;62.06;101628.59;5081960;27;45317;-55
2021/10/26 00:40:03;;;;;;;;;25.25;21.75;;;;;14.38;61.73;101637.44;5082405;27;45316;-54
2021/10/26 00:42:28;;;;;;;;;18.25;18.25;;;;;14.35;62.18;101632.22;5080848;28;45502;-54
2021/10/26 00:44:53;;;;;;;;;18.00;18.00;;;;;14.34;62.15;101643.69;5082167;27;45501;-55
2021/10/26 00:47:19;;;;;;;;;24.25;22.00;;;;;14.30;61.74;101637.56;5080687;27;46112;-55
2021/10/26 00:49:44;;;;;;;;;24.00;23.00;;;;;14.32;61.59;101640.19;5082268;27;45313;-53
2021/10/26 00:52:10;;;;;;;;;20.00;18.00;;;;;14.31;61.62;101646.34;5082077;27;45349;-56
2021/10/26 00:54:36;;;;;;;;;17.25;16.50;;;;;14.28;61.42;101642.00;5082261;27;45363;-55
2021/10/26 00:57:01;;;;;;;;;25.00;21.75;;;;;14.28;62.06;101649.91;5081508;27;46325;-54
2021/10/26 00:59:27;;;;;;;;;19.25;19.25;;;;;14.24;61.51;101642.09;5082086;27;45247;-56
2021/10/26 01:01:52;;;;;;;;;21.25;21.25;;;;;14.22;61.81;101644.72;5082073;27;45221;-55
2021/10/26 01:04:18;;;;;;;;;17.50;17.50;;;;;14.18;61.76;101643.03;5082173;27;45222;-54
2021/10/26 01:06:44;;;;;;;;;21.50;20.50;;;;;14.18;61.66;101640.38;5081443;27;46281;-55
2021/10/26 01:09:09;;;;;;;;;23.75;22.25;;;;;14.14;62.01;101639.56;5081788;27;45129;-54
2021/10/26 01:11:35;;;;;;;;;21.50;21.50;;;;;14.12;61.57;101641.38;5081902;28;45296;-55
2021/10/26 01:14:04;;;;;;;;;23.75;21.00;;;;;14.09;62.03;101641.41;5081799;28;45248;-54
2021/10/26 01:16:30;;;;;;;;;21.50;20.50;;;;;14.07;62.04;101643.19;5081283;27;46204;-55
2021/10/26 01:18:56;;;;;;;;;24.00;20.50;;;;;14.07;61.51;101644.97;5097693;27;45306;-54
2021/10/26 01:21:21;;;;;;;;;22.75;18.00;;;;;14.04;61.54;101651.16;5085936;27;45219;-55
2021/10/26 01:23:47;;;;;;;;;20.75;19.00;;;;;14.03;61.67;101648.56;5081839;27;45200;-55
2021/10/26 01:26:12;;;;;;;;;21.00;19.00;;;;;14.01;61.87;101643.25;5079043;28;47063;-55
2021/10/26 01:28:38;;;;;;;;;26.50;23.00;;;;;13.98;61.71;101641.53;5081357;27;45220;-54
2021/10/26 01:31:04;;;;;;;;;18.50;18.50;;;;;13.98;61.41;101641.53;5086279;27;45208;-53
2021/10/26 01:33:30;;;;;;;;;20.50;19.50;;;;;13.98;61.82;101641.53;5081637;27;45581;-55
2021/10/26 01:35:55;;;;;;;;;21.50;21.00;;;;;13.97;62.11;101641.56;5081045;27;45396;-55
2021/10/26 01:38:24;;;;;;;;;23.25;19.00;;;;;13.96;61.18;101643.34;5081276;27;45377;-54
2021/10/26 01:40:51;;;;;;;;;28.25;23.50;;;;;13.94;61.67;101652.19;5081524;27;45402;-54
2021/10/26 01:43:16;;;;;;;;;20.25;18.50;;;;;13.91;61.19;101642.53;5081247;28;45537;-55
2021/10/26 01:45:41;;;;;;;;;15.75;15.00;;;;;13.93;61.69;101640.72;5079788;27;47242;-55
2021/10/26 01:48:07;;;;;;;;;17.50;16.50;;;;;13.90;61.21;101647.81;5081348;27;45212;-55
2021/10/26 01:50:32;;;;;;;;;21.75;20.75;;;;;13.90;61.34;101642.53;5081127;27;45366;-53
2021/10/26 01:52:59;;;;;;;;;22.25;19.25;;;;;13.87;61.14;101648.75;5081449;28;45208;-54
2021/10/26 01:55:24;;;;;;;;;22.00;20.00;;;;;13.86;61.22;101649.66;5080889;27;46208;-55
2021/10/26 01:57:50;;;;;;;;;20.00;19.00;;;;;13.76;61.60;101640.09;5081025;27;45463;-54
2021/10/26 02:00:20;;;;;;;;;24.25;21.50;;;;;13.79;61.31;101654.13;5081073;27;45458;-53
2021/10/26 02:02:47;;;;;;;;;20.50;19.25;;;;;13.75;61.71;101646.28;5081111;27;45448;-53
2021/10/26 02:05:13;;;;;;;;;20.75;18.25;;;;;13.76;61.35;101658.56;5080739;27;46205;-55
2021/10/26 02:07:38;;;;;;;;;23.50;20.25;;;;;13.71;61.71;101650.72;5080632;27;45419;-55
2021/10/26 02:10:05;;;;;;;;;19.75;18.75;;;;;13.69;61.53;101660.44;5080823;27;45219;-56
2021/10/26 02:12:31;;;;;;;;;21.25;17.25;;;;;13.66;61.33;101663.13;5080794;27;45485;-54
2021/10/26 02:14:56;;;;;;;;;20.25;18.00;;;;;13.65;61.30;101656.09;5080593;27;45790;-54
2021/10/26 02:17:21;;;;;;;;;25.25;20.75;;;;;13.61;61.29;101657.88;5083363;27;45352;-54
2021/10/26 02:19:48;;;;;;;;;24.00;22.75;;;;;13.59;61.70;101650.88;5096998;27;45347;-55
2021/10/26 02:22:13;;;;;;;;;20.50;18.25;;;;;13.54;61.13;101650.94;5080575;27;45303;-53
2021/10/26 02:24:39;;;;;;;;;18.50;15.50;;;;;13.52;61.44;101650.09;5080474;27;45317;-53
2021/10/26 02:27:04;;;;;;;;;17.00;17.00;;;;;13.47;61.17;101651.88;5080765;27;45327;-55
2021/10/26 02:29:29;;;;;;;;;19.25;16.25;;;;;13.45;61.66;101656.34;5085170;27;46486;-55
2021/10/26 02:31:55;;;;;;;;;18.00;15.25;;;;;13.43;61.64;101663.38;5080673;27;45378;-55
2021/10/26 02:34:21;;;;;;;;;16.75;16.25;;;;;13.37;61.40;101651.16;5080428;27;47058;-54
2021/10/26 02:36:47;;;;;;;;;20.50;17.75;;;;;13.33;61.55;101655.53;5080196;27;45232;-54
2021/10/26 02:39:13;;;;;;;;;17.25;15.25;;;;;13.35;61.35;101657.31;5080149;27;45172;-55
2021/10/26 02:41:38;;;;;;;;;20.25;16.75;;;;;13.31;61.76;101665.25;5080510;27;45444;-52
2021/10/26 02:44:04;;;;;;;;;14.00;13.75;;;;;13.25;61.43;101673.22;5078890;28;46641;-55
2021/10/26 02:46:30;;;;;;;;;20.00;14.75;;;;;13.25;61.58;101673.22;5080527;27;45526;-52
2021/10/26 02:48:55;;;;;;;;;17.25;14.00;;;;;13.21;61.43;101660.09;5080311;27;45275;-51
2021/10/26 02:51:21;;;;;;;;;19.00;15.00;;;;;13.21;61.68;101665.38;5080268;27;45433;-55
2021/10/26 02:53:47;;;;;;;;;18.75;14.50;;;;;13.20;61.57;101664.47;5080138;27;46266;-55
2021/10/26 02:56:12;;;;;;;;;13.50;13.50;;;;;13.19;61.52;101668.00;5078923;28;45823;-53
2021/10/26 02:58:38;;;;;;;;;16.75;14.00;;;;;13.15;61.34;101661.88;5078772;27;45606;-55
2021/10/26 03:01:03;;;;;;;;;15.25;14.00;;;;;13.15;61.60;101674.22;5080496;27;45446;-55
2021/10/26 03:03:29;;;;;;;;;16.50;13.75;;;;;13.13;61.51;101676.88;5080014;27;45455;-52
2021/10/26 03:05:55;;;;;;;;;12.75;12.50;;;;;13.13;61.61;101676.88;5079927;27;45444;-54
2021/10/26 03:08:21;;;;;;;;;13.75;12.00;;;;;13.11;61.12;101665.44;5080173;27;45173;-55
2021/10/26 03:10:46;;;;;;;;;16.00;15.50;;;;;13.10;61.55;101668.97;5078828;27;45344;-55
2021/10/26 03:13:12;;;;;;;;;14.25;13.25;;;;;13.09;61.47;101671.63;5079875;27;45933;-55
2021/10/26 03:15:37;;;;;;;;;13.00;12.75;;;;;13.08;61.44;101664.59;5078850;28;45232;-55
2021/10/26 03:18:03;;;;;;;;;17.50;16.50;;;;;13.08;61.21;101667.22;5088594;27;45295;-54
2021/10/26 03:20:29;;;;;;;;;20.25;18.25;;;;;13.07;61.54;101678.69;5091993;27;45248;-55
2021/10/26 03:22:55;;;;;;;;;13.50;13.25;;;;;13.04;61.23;101676.94;5080088;27;45196;-55
2021/10/26 03:25:21;;;;;;;;;16.50;15.25;;;;;13.01;61.23;101685.75;5078672;28;45332;-55
2021/10/26 03:27:47;;;;;;;;;13.25;12.25;;;;;12.97;61.61;101676.13;5079852;27;45373;-55
2021/10/26 03:30:14;;;;;;;;;15.50;13.25;;;;;12.93;61.23;101677.06;5083939;27;45513;-53
2021/10/26 03:32:40;;;;;;;;;16.75;12.50;;;;;12.89;61.62;101675.31;5079636;27;47230;-55
2021/10/26 03:35:06;;;;;;;;;13.75;12.00;;;;;12.83;61.38;101680.69;5078595;28;45334;-55
2021/10/26 03:37:31;;;;;;;;;12.50;11.50;;;;;12.79;61.45;101684.19;5079465;27;45236;-55
2021/10/26 03:39:56;;;;;;;;;12.00;11.75;;;;;12.75;61.78;101687.75;5079833;27;45642;-54
2021/10/26 03:42:22;;;;;;;;;13.25;11.00;;;;;12.69;61.88;101688.66;5079475;27;46046;-53
2021/10/26 03:44:49;;;;;;;;;19.00;15.25;;;;;12.65;61.50;101682.56;5079686;27;45152;-52
2021/10/26 03:47:14;;;;;;;;;10.25;10.25;;;;;12.62;61.47;101689.63;5079787;27;45287;-53
2021/10/26 03:49:39;;;;;;;;;15.00;11.75;;;;;12.60;61.80;101694.03;5078915;27;45194;-54
2021/10/26 03:52:05;;;;;;;;;14.25;14.00;;;;;12.56;61.82;101693.16;5082863;27;45596;-54
2021/10/26 03:54:30;;;;;;;;;16.00;11.50;;;;;12.53;61.84;101682.66;5083090;27;45414;-53
2021/10/26 03:56:56;;;;;;;;;15.75;13.25;;;;;12.50;61.51;101696.75;5082763;27;45325;-54
2021/10/26 03:59:22;;;;;;;;;10.25;9.50;;;;;12.46;61.46;101686.22;5083225;27;45322;-53
2021/10/26 04:01:47;;;;;;;;;14.25;13.50;;;;;12.47;61.65;101691.47;5081471;27;47291;-55
2021/10/26 04:04:13;;;;;;;;;14.25;11.50;;;;;12.46;61.49;101695.00;5082818;27;45330;-54
2021/10/26 04:06:39;;;;;;;;;13.00;10.75;;;;;12.45;61.70;101692.38;5082645;27;45369;-54
2021/10/26 04:09:08;;;;;;;;;14.00;11.00;;;;;12.43;61.59;101691.53;5082819;27;45357;-53
2021/10/26 04:11:50;;;;;;;;;14.50;11.75;;;;;12.39;61.56;101685.41;5082541;27;46172;-53
2021/10/26 04:14:15;;;;;;;;;13.00;12.00;;;;;12.37;61.55;101691.56;5082747;27;45227;-53
2021/10/26 04:16:41;;;;;;;;;14.25;12.25;;;;;12.34;61.60;101700.38;5082445;27;45231;-53
2021/10/26 04:19:06;;;;;;;;;12.00;12.00;;;;;12.32;61.47;101705.63;5100297;27;45223;-54
2021/10/26 04:21:31;;;;;;;;;12.75;12.75;;;;;12.28;61.82;101698.63;5085129;27;45230;-54
2021/10/26 04:23:57;;;;;;;;;11.00;10.00;;;;;12.27;61.55;101707.41;5082941;27;45313;-53
2021/10/26 04:26:22;;;;;;;;;13.00;13.00;;;;;12.28;61.69;101716.22;5081361;27;45394;-55
2021/10/26 04:28:48;;;;;;;;;10.25;10.25;;;;;12.24;61.81;101718.00;5083630;27;45575;-52
2021/10/26 04:31:15;;;;;;;;;11.00;10.50;;;;;12.14;61.70;101700.47;5085415;27;46106;-50
2021/10/26 04:33:40;;;;;;;;;15.50;14.75;;;;;12.18;61.82;101713.63;5081437;27;45593;-52
2021/10/26 04:36:06;;;;;;;;;23.75;17.50;;;;;12.14;61.62;101713.66;5082191;27;45268;-52
2021/10/26 04:38:31;;;;;;;;;15.00;13.50;;;;;12.09;61.89;101710.16;5081042;27;45469;-53
2021/10/26 04:41:01;;;;;;;;;19.75;16.25;;;;;12.03;61.88;101714.56;5082193;27;45906;-52
2021/10/26 04:43:27;;;;;;;;;18.50;16.75;;;;;11.96;62.01;101710.22;5082209;27;45212;-53
2021/10/26 04:45:53;;;;;;;;;17.25;16.25;;;;;11.95;62.01;101725.97;5082165;27;45278;-53
2021/10/26 04:48:19;;;;;;;;;20.00;19.00;;;;;11.86;62.07;101722.53;5082204;27;45240;-51
2021/10/26 04:50:45;;;;;;;;;25.50;19.50;;;;;11.87;62.19;101718.13;5081865;27;47135;-55
2021/10/26 04:53:10;;;;;;;;;21.75;19.25;;;;;11.86;62.13;101729.53;5082071;27;45406;-57
2021/10/26 04:55:36;;;;;;;;;23.75;17.75;;;;;11.83;62.22;101730.41;5082089;27;45323;-51
2021/10/26 04:58:01;;;;;;;;;21.50;13.25;;;;;11.79;61.91;101733.94;5080585;27;45442;-52
2021/10/26 05:00:29;;;;;;;;;24.75;20.50;;;;;11.76;62.28;101730.44;5081538;27;46152;-52
2021/10/26 05:02:54;;;;;;;;;25.00;16.50;;;;;11.70;62.24;101731.38;5082024;27;45447;-52
2021/10/26 05:05:20;;;;;;;;;19.75;16.75;;;;;11.69;62.27;101730.47;5081601;27;45237;-54
2021/10/26 05:07:45;;;;;;;;;19.00;17.75;;;;;11.66;62.29;101743.66;5082088;27;45359;-54
2021/10/26 05:10:10;;;;;;;;;15.75;15.25;;;;;11.62;62.32;101734.03;5081711;27;46242;-54
2021/10/26 05:12:36;;;;;;;;;18.50;14.00;;;;;11.58;62.05;101737.53;5081929;27;45390;-53
2021/10/26 05:15:02;;;;;;;;;19.75;17.00;;;;;11.63;62.22;101742.78;5081782;27;45603;-52
2021/10/26 05:17:28;;;;;;;;;17.75;16.50;;;;;11.61;62.13;101732.25;5085326;27;45234;-53
2021/10/26 05:19:54;;;;;;;;;19.50;16.00;;;;;11.61;61.80;101734.91;5098353;27;47145;-53
2021/10/26 05:22:22;;;;;;;;;17.25;17.25;;;;;11.60;62.27;101735.78;5081535;27;45410;-53
2021/10/26 05:24:48;;;;;;;;;18.00;15.25;;;;;11.59;62.22;101746.31;5081528;27;45264;-54
2021/10/26 05:27:13;;;;;;;;;22.75;16.50;;;;;11.57;62.44;101746.28;5081542;27;45377;-54
2021/10/26 05:29:40;;;;;;;;;16.25;16.00;;;;;11.55;62.54;101745.44;5086235;27;45219;-54
2021/10/26 05:32:08;;;;;;;;;18.75;17.00;;;;;11.54;62.34;101752.44;5081627;27;45289;-52
2021/10/26 05:34:37;;;;;;;;;19.25;15.75;;;;;11.53;62.46;101755.97;5081412;27;45236;-54
2021/10/26 05:37:04;;;;;;;;;22.75;19.50;;;;;11.52;62.56;101753.31;5081120;27;45299;-54
2021/10/26 05:39:29;;;;;;;;;22.25;18.50;;;;;11.44;62.43;101761.25;5081214;27;45508;-52
2021/10/26 05:41:55;;;;;;;;;18.00;15.00;;;;;11.47;62.65;101771.78;5081220;27;45329;-53
2021/10/26 05:44:20;;;;;;;;;19.75;17.25;;;;;11.41;62.77;101763.88;5081301;27;45450;-51
2021/10/26 05:46:45;;;;;;;;;22.50;18.00;;;;;11.39;62.88;101765.63;5079973;27;45368;-52
2021/10/26 05:49:11;;;;;;;;;16.00;16.00;;;;;11.42;62.72;101775.28;5081127;27;45386;-52
2021/10/26 05:51:36;;;;;;;;;20.25;15.75;;;;;11.41;62.85;101774.41;5081210;27;45179;-52
2021/10/26 05:54:02;;;;;;;;;16.25;16.25;;;;;11.38;62.54;101777.03;5081149;27;45321;-54
2021/10/26 05:56:27;;;;;;;;;21.75;20.25;;;;;11.35;62.69;101770.03;5081014;28;45477;-52
2021/10/26 05:58:53;;;;;;;;;20.75;18.50;;;;;11.37;62.79;101778.81;5080710;27;45241;-53
2021/10/26 06:01:22;;;;;;;;;15.25;15.25;;;;;11.36;62.82;101781.44;5081167;27;45350;-53
2021/10/26 06:03:49;;;;;;;;;18.75;17.50;;;;;11.34;63.23;101776.16;5079614;27;45382;-53
2021/10/26 06:06:15;;;;;;;;;19.50;18.50;;;;;11.36;62.84;101781.44;5080597;27;45378;-53
2021/10/26 06:08:40;;;;;;;;;21.00;16.25;;;;;11.34;63.06;101788.44;5080797;27;46148;-54
2021/10/26 06:11:10;;;;;;;;;18.00;16.75;;;;;11.31;63.04;101799.00;5081174;27;45163;-52
2021/10/26 06:13:40;;;;;;;;;15.00;14.25;;;;;11.31;62.88;101802.50;5080079;27;45370;-55
2021/10/26 06:16:06;;;;;;;;;18.00;17.00;;;;;11.35;62.91;101808.63;5080292;27;45336;-55
2021/10/26 06:18:31;;;;;;;;;20.75;19.25;;;;;11.35;63.14;101812.13;5083963;27;45952;-52
2021/10/26 06:20:57;;;;;;;;;23.75;17.00;;;;;11.30;63.15;101811.25;5080979;27;45219;-54
2021/10/26 06:23:23;;;;;;;;;22.50;15.75;;;;;11.30;63.28;101806.00;5097140;27;45469;-55
2021/10/26 06:25:49;;;;;;;;;24.75;19.75;;;;;11.29;63.30;101808.63;5100717;27;45164;-55
2021/10/26 06:28:15;;;;;;;;;19.50;18.00;;;;;11.26;63.35;101806.88;5091117;27;46712;-54
2021/10/26 06:30:40;;;;;;;;;13.25;13.00;;;;;11.25;63.48;101814.78;5097231;27;45169;-54
2021/10/26 06:33:06;;;;;;;;;20.00;16.50;;;;;11.20;63.62;101804.25;5100872;27;45423;-52
2021/10/26 06:35:31;;;;;;;;;19.00;17.50;;;;;11.21;63.64;101813.91;5089517;27;45519;-54
2021/10/26 06:37:57;;;;;;;;;21.00;17.00;;;;;11.23;63.24;101814.75;5080118;27;45540;-55
2021/10/26 06:40:24;;;;;;;;;18.75;17.50;;;;;11.25;63.33;101817.41;5091235;27;45487;-56
2021/10/26 06:42:49;;;;;;;;;19.50;18.25;;;;;11.25;63.49;101830.56;5100834;27;45314;-52
2021/10/26 06:45:15;;;;;;;;;20.00;19.00;;;;;11.25;63.40;101823.53;5100397;27;45715;-58
2021/10/26 06:47:41;;;;;;;;;18.00;17.00;;;;;11.28;63.20;101828.81;5100380;27;46154;-57
2021/10/26 06:50:07;;;;;;;;;15.00;14.00;;;;;11.28;63.33;101828.81;5098767;27;45428;-57
2021/10/26 06:52:32;;;;;;;;;12.50;10.50;;;;;11.28;63.33;101826.19;5098841;27;45278;-55
2021/10/26 06:54:58;;;;;;;;;9.25;8.50;;;;;11.27;63.49;101832.31;5100368;27;45254;-55
2021/10/26 06:57:25;;;;;;;;;14.75;13.25;;;;;11.26;63.29;101832.28;5100021;27;45236;-54
2021/10/26 06:59:51;;;;;;;;;12.00;11.50;;;;;11.20;63.42;101833.19;5100583;27;45505;-51
2021/10/26 07:02:17;;;;;;;;;13.00;10.00;;;;;11.21;63.48;101848.97;5080458;27;45310;-53
2021/10/26 07:04:43;;;;;;;;;12.50;11.00;;;;;11.20;63.54;101847.22;5079936;27;45506;-55
2021/10/26 07:07:09;;;;;;;;;11.25;11.25;;;;;11.22;63.33;101850.72;5080162;27;46036;-55
2021/10/26 07:09:34;;;;;;;;;12.25;11.25;;;;;11.22;63.38;101849.88;5079875;27;45352;-55
2021/10/26 07:11:59;;;;;;;;;11.00;10.50;;;;;11.22;63.41;101853.34;5080231;27;45963;-54
2021/10/26 07:14:25;;;;;;;;;12.00;10.25;;;;;11.27;63.30;101863.91;5079843;27;45433;-53
2021/10/26 07:16:51;;;;;;;;;15.25;13.75;;;;;11.30;63.49;101863.88;5078423;28;47983;-54
2021/10/26 07:19:16;;;;;;;;;14.75;11.75;;;;;11.32;63.27;101861.25;5099232;27;45245;-54
2021/10/26 07:21:42;;;;;;;;;15.00;14.50;;;;;11.35;63.35;101874.44;5098865;27;45434;-53
2021/10/26 07:24:09;;;;;;;;;16.50;15.75;;;;;11.38;63.33;101867.41;5095044;27;45461;-54
2021/10/26 07:26:34;;;;;;;;;17.75;17.50;;;;;11.44;63.32;101873.56;5101500;27;46166;-54
2021/10/26 07:29:00;;;;;;;;;19.25;17.00;;;;;11.47;63.19;101882.34;5101115;27;45230;-55
2021/10/26 07:31:25;;;;;;;;;21.00;20.50;;;;;11.48;63.39;101883.19;5102995;27;46405;-53
2021/10/26 07:33:58;;;;;;;;;24.50;20.50;;;;;11.55;63.25;101883.19;5103916;27;45341;-52
2021/10/26 07:36:29;;;;;;;;;20.75;15.25;;;;;11.55;63.34;101875.28;5103491;27;45965;-55
2021/10/26 07:39:03;;;;;;;;;21.00;19.75;;;;;11.60;63.34;101887.59;5103710;27;45593;-56
2021/10/26 07:41:29;;;;;;;;;19.50;19.00;;;;;11.62;63.38;101901.63;5103976;27;45462;-54
2021/10/26 07:43:55;;;;;;;;;22.50;20.50;;;;;11.63;63.58;101912.16;5103462;27;45469;-55
2021/10/26 07:46:21;;;;;;;;;23.75;21.50;;;;;11.68;63.51;101910.44;5102286;27;46871;-55
2021/10/26 07:48:47;;;;;;;;;29.75;28.25;;;;;11.70;63.53;101906.00;5103637;27;45169;-55
2021/10/26 07:51:13;;;;;;;;;23.75;22.25;;;;;11.75;63.48;101913.03;5103592;27;45293;-54
2021/10/26 07:53:38;;;;;;;;;21.75;20.50;;;;;11.79;63.61;101920.06;5103635;27;45425;-55
2021/10/26 07:56:06;;;;;;;;;26.50;23.75;;;;;11.83;63.52;101917.41;5103290;27;46156;-52
2021/10/26 07:58:31;;;;;;;;;23.75;22.00;;;;;11.87;63.40;101918.28;5101726;27;45353;-55
2021/10/26 08:00:57;;;;;;;;;23.25;21.50;;;;;11.91;63.58;101924.44;5103513;27;45293;-54
2021/10/26 08:03:23;;;;;;;;;21.75;21.50;;;;;11.94;63.53;101938.50;5103393;27;45397;-54
2021/10/26 08:05:50;;;;;;;;;26.00;20.00;;;;;12.00;63.70;101935.00;5101801;27;47095;-53
2021/10/26 08:08:17;;;;;;;;;23.00;20.75;;;;;12.01;63.84;101942.91;5103232;27;45219;-55
2021/10/26 08:10:44;;;;;;;;;27.25;22.00;;;;;12.02;63.95;101931.50;5103398;27;45276;-53
2021/10/26 08:13:10;;;;;;;;;23.75;23.25;;;;;12.08;63.85;101943.78;5102868;27;45256;-54
2021/10/26 08:15:35;;;;;;;;;26.00;23.50;;;;;12.11;63.77;101940.25;5102782;27;46036;-54
2021/10/26 08:18:02;;;;;;;;;25.50;23.25;;;;;12.15;63.97;101936.72;5101594;27;45376;-53
2021/10/26 08:20:28;;;;;;;;;27.25;25.25;;;;;12.18;64.06;101937.59;5095999;27;45381;-54
2021/10/26 08:22:53;;;;;;;;;26.00;23.00;;;;;12.22;64.19;101938.47;5082437;27;46471;-55
2021/10/26 08:25:25;;;;;;;;;25.50;25.50;;;;;12.24;64.05;101923.56;5082199;27;46137;-54
2021/10/26 08:27:54;;;;;;;;;37.25;31.25;;;;;12.26;64.20;101927.03;5082495;27;45332;-55
2021/10/26 08:30:40;;;;;;;;;45.75;36.75;;;;;12.31;64.36;101925.31;5090550;27;45250;-52
2021/10/26 08:33:18;;;;;;;;;40.00;32.00;;;;;12.37;64.08;101926.16;5082319;27;45304;-54
2021/10/26 08:35:47;;;;;;;;;31.25;28.25;;;;;12.40;64.44;101934.03;5081334;27;46088;-54
2021/10/26 08:38:13;;;;;;;;;27.75;22.50;;;;;12.42;64.65;101929.66;5081967;27;45375;-53
2021/10/26 08:40:48;;;;;;;;;24.00;22.00;;;;;12.43;64.65;101916.47;5081110;28;45365;-53
2021/10/26 08:43:22;;;;;;;;;28.25;22.50;;;;;12.44;64.19;101915.59;5082044;27;45352;-53
2021/10/26 08:45:48;;;;;;;;;23.25;17.00;;;;;12.49;64.41;101921.72;5081952;27;46452;-54
2021/10/26 08:48:23;;;;;;;;;18.00;18.00;;;;;12.55;64.32;101928.72;5081872;27;45359;-52
2021/10/26 08:51:00;;;;;;;;;18.75;17.75;;;;;12.59;64.47;101941.03;5081800;27;45326;-54
2021/10/26 08:53:29;;;;;;;;;13.00;11.50;;;;;12.61;64.40;101928.69;5081917;27;45232;-54
2021/10/26 08:55:56;;;;;;;;;15.75;13.25;;;;;12.66;64.56;101937.47;5081794;27;46499;-52
2021/10/26 08:58:24;;;;;;;;;13.50;12.25;;;;;12.70;64.34;101929.56;5081730;27;45338;-51
2021/10/26 09:00:50;;;;;;;;;13.50;12.75;;;;;12.71;64.77;101936.59;5081923;27;45290;-53
2021/10/26 09:03:25;;;;;;;;;12.25;12.00;;;;;12.74;64.40;101936.56;5082057;27;45451;-53
2021/10/26 09:05:51;;;;;;;;;16.75;15.50;;;;;12.80;64.48;101936.53;5081445;27;46157;-54
2021/10/26 09:08:22;;;;;;;;;11.50;11.00;;;;;12.82;64.28;101930.38;5081734;27;45232;-54
2021/10/26 09:10:50;;;;;;;;;13.50;11.25;;;;;12.82;64.15;101921.59;5081738;27;45433;-53
2021/10/26 09:19:14;;;;;;;;;18.00;16.50;;;;;13.10;64.38;101935.50;5099434;27;45274;-53
2021/10/26 09:21:41;;;;;;;;;17.50;15.00;;;;;13.20;64.29;101936.34;5087169;27;45316;-54
2021/10/26 09:24:15;;;;;;;;;16.00;16.00;;;;;13.28;64.43;101939.81;5080214;27;45339;-53
2021/10/26 09:26:56;;;;;;;;;16.00;15.75;;;;;13.41;64.10;101938.00;5081233;27;46305;-53
2021/10/26 09:29:28;;;;;;;;;15.25;13.00;;;;;13.50;63.99;101944.97;5086811;27;45298;-54
2021/10/26 09:32:03;;;;;;;;;15.00;13.00;;;;;13.59;64.15;101936.09;5082990;27;45430;-54
2021/10/26 09:34:38;;;;;;;;;12.25;12.25;;;;;13.67;63.83;101931.63;5081197;28;45237;-53
2021/10/26 09:37:04;;;;;;;;;16.75;12.25;;;;;13.77;63.83;101937.72;5086967;27;45249;-53
2021/10/26 09:39:29;;;;;;;;;11.75;9.75;;;;;13.86;63.96;101929.72;5101815;27;45140;-54
2021/10/26 09:41:55;;;;;;;;;9.50;9.50;;;;;13.93;64.01;101923.47;5101808;27;45214;-52
2021/10/26 09:44:26;;;;;;;;;9.50;9.25;;;;;13.97;63.70;101921.69;5101739;27;45268;-52
2021/10/26 09:46:57;;;;;;;;;15.50;10.25;;;;;14.04;63.91;101922.50;5100996;27;45293;-54
2021/10/26 09:49:24;;;;;;;;;11.25;9.50;;;;;14.17;63.63;101921.47;5101009;27;45447;-53
2021/10/26 09:51:51;;;;;;;;;10.00;10.00;;;;;14.23;63.47;101918.78;5101381;27;45305;-52
2021/10/26 09:54:20;;;;;;;;;12.50;9.00;;;;;14.34;63.92;101915.13;5101455;27;45561;-52
2021/10/26 09:57:12;;;;;;;;;10.75;9.50;;;;;14.51;63.39;101913.16;5101256;27;45391;-52
2021/10/26 09:59:46;;;;;;;;;11.00;10.75;;;;;14.65;63.07;101917.47;5096691;27;46037;-54
2021/10/26 10:02:16;;;;;;;;;11.25;9.50;;;;;14.76;63.25;101916.41;5100077;27;45456;-49
2021/10/26 10:04:42;;;;;;;;;12.75;11.50;;;;;14.89;63.41;101913.59;5101586;27;45327;-54
2021/10/26 10:07:09;;;;;;;;;11.00;7.75;;;;;15.00;63.15;101916.13;5100882;27;45390;-53
2021/10/26 10:09:35;;;;;;;;;9.50;7.75;;;;;15.14;63.50;101915.91;5101320;27;45351;-54
2021/10/26 10:12:07;;;;;;;;;13.00;12.00;;;;;15.30;63.45;101914.78;5099862;27;45281;-50
2021/10/26 10:14:40;;;;;;;;;7.25;6.75;;;;;15.43;63.30;101921.66;5100039;27;45548;-54
2021/10/26 10:17:08;;;;;;;;;11.50;9.50;;;;;15.55;63.35;101911.75;5099567;27;47353;-55
2021/10/26 10:19:35;;;;;;;;;8.75;7.00;;;;;15.68;62.51;101921.22;5101024;27;45275;-54
2021/10/26 10:22:07;;;;;;;;;8.75;8.75;;;;;15.76;62.76;101932.59;5083360;27;45249;-53
2021/10/26 10:24:38;;;;;;;;;11.00;10.50;;;;;15.82;62.50;101931.63;5080472;27;45473;-53
2021/10/26 10:27:05;;;;;;;;;9.75;7.75;;;;;15.91;62.84;101935.91;5079987;27;46050;-53
2021/10/26 10:29:30;;;;;;;;;10.25;8.25;;;;;15.96;62.39;101943.78;5087286;27;45334;-53
2021/10/26 10:31:56;;;;;;;;;6.00;4.75;;;;;16.00;62.07;101942.81;5081788;27;45425;-52
2021/10/26 10:34:22;;;;;;;;;10.00;8.25;;;;;16.05;62.12;101940.94;5078863;28;45504;-51
2021/10/26 10:36:52;;;;;;;;;7.00;5.00;;;;;16.05;62.14;101931.25;5080045;27;46121;-53
2021/10/26 10:39:24;;;;;;;;;9.00;6.50;;;;;16.09;61.90;101940.03;5079088;28;45314;-54
2021/10/26 10:42:26;;;;;;;;;5.00;5.00;;;;;16.14;61.86;101930.19;5080496;27;45264;-54
2021/10/26 10:44:57;;;;;;;;;8.00;8.00;;;;;16.19;61.30;101917.72;5079816;28;45461;-53
2021/10/26 10:47:37;;;;;;;;;10.75;7.75;;;;;16.24;61.45;101918.50;5080123;27;46616;-54
2021/10/26 10:50:21;;;;;;;;;9.50;7.50;;;;;16.32;61.55;101926.31;5087175;27;45468;-55
2021/10/26 10:53:07;;;;;;;;;8.00;7.00;;;;;16.37;61.34;101915.63;5100562;27;45307;-54
2021/10/26 10:55:33;;;;;;;;;10.25;7.50;;;;;16.44;61.29;101919.91;5092134;27;45495;-54
2021/10/26 10:58:23;;;;;;;;;7.00;5.50;;;;;16.54;60.92;101921.47;5100125;27;46231;-52
2021/10/26 11:00:50;;;;;;;;;7.25;6.00;;;;;16.61;61.04;101934.59;5100350;27;45165;-54
2021/10/26 11:03:28;;;;;;;;;4.75;3.75;;;;;16.67;60.77;101935.34;5100603;27;45315;-54
2021/10/26 11:05:53;;;;;;;;;8.75;6.00;;;;;16.74;60.90;101925.47;5099892;27;45316;-54
2021/10/26 11:08:42;;;;;;;;;5.00;4.75;;;;;16.77;60.56;101930.72;5100200;27;45439;-54
2021/10/26 11:11:07;;;;;;;;;7.25;5.00;;;;;16.83;60.67;101935.91;5100527;27;45243;-55
2021/10/26 11:13:36;;;;;;;;;5.00;5.00;;;;;16.88;60.54;101939.34;5100184;27;45250;-54
2021/10/26 11:16:08;;;;;;;;;8.50;6.00;;;;;16.89;60.17;101927.81;5100116;27;45667;-54
2021/10/26 11:18:36;;;;;;;;;5.00;5.00;;;;;16.91;60.38;101933.09;5099866;27;46047;-53